Time;durP1;ratioP1;P1;durP2;ratioP2;P2;SDS_P1;SDS_P2;PMS_P1;PMS_P2;Temp;Humidity;BMP_temperature;BMP_pressure;BME280_temperature;BME280_humidity;BME280_pressure;Samples;Min_cycle;Max_cycle;Signal;HPM_P1;HPM_P2
2023/10/23 00:02:18;;;;;;;7.63;3.40;;;10.40;99.90;;;;;;4992844;28;20022;-52
2023/10/23 00:04:43;;;;;;;7.90;3.08;;;10.40;99.90;;;;;;4992801;28;20034;-49
2023/10/23 00:07:10;;;;;;;4.50;2.55;;;10.40;99.90;;;;;;4992751;28;20109;-49
2023/10/23 00:09:35;;;;;;;6.95;3.13;;;10.30;99.90;;;;;;4992556;28;20425;-50
2023/10/23 00:12:01;;;;;;;9.30;3.15;;;10.30;99.90;;;;;;4992672;28;20026;-50
2023/10/23 00:14:26;;;;;;;2.85;2.30;;;10.30;99.90;;;;;;4992725;28;20026;-47
2023/10/23 00:16:52;;;;;;;5.05;2.80;;;10.20;99.90;;;;;;4992870;28;20026;-50
2023/10/23 00:19:17;;;;;;;8.60;3.50;;;10.20;99.90;;;;;;4992472;28;20390;-51
2023/10/23 00:21:44;;;;;;;4.75;2.72;;;10.20;99.90;;;;;;4992577;28;20019;-54
2023/10/23 00:24:10;;;;;;;3.72;3.05;;;10.20;99.90;;;;;;4991032;28;20465;-48
2023/10/23 00:26:35;;;;;;;7.38;3.38;;;10.20;99.90;;;;;;4992384;28;20065;-49
2023/10/23 00:29:01;;;;;;;8.38;3.33;;;10.10;99.90;;;;;;4992235;28;20034;-56
2023/10/23 00:31:28;;;;;;;10.48;4.20;;;10.10;99.90;;;;;;4991536;28;20522;-47
2023/10/23 00:33:53;;;;;;;11.23;3.30;;;10.10;99.90;;;;;;4992599;28;20558;-53
2023/10/23 00:36:19;;;;;;;12.07;4.13;;;10.10;99.90;;;;;;4992256;28;20074;-43
2023/10/23 00:38:44;;;;;;;4.78;2.60;;;10.10;99.90;;;;;;4992035;28;20018;-50
2023/10/23 00:41:10;;;;;;;4.57;2.85;;;10.00;99.90;;;;;;4992217;28;20117;-48
2023/10/23 00:43:36;;;;;;;10.98;3.60;;;10.00;99.90;;;;;;4990586;28;20648;-53
2023/10/23 00:46:06;;;;;;;8.43;2.80;;;10.00;99.90;;;;;;4992312;28;20057;-49
2023/10/23 00:48:32;;;;;;;9.32;3.67;;;10.00;99.90;;;;;;4992047;28;20065;-47
2023/10/23 00:51:00;;;;;;;10.20;3.63;;;10.00;99.90;;;;;;4992039;28;20037;-55
2023/10/23 00:53:31;;;;;;;6.40;3.20;;;10.00;99.90;;;;;;4991992;28;20062;-48
2023/10/23 00:55:58;;;;;;;9.02;3.30;;;9.90;99.90;;;;;;4992117;28;20023;-52
2023/10/23 00:58:27;;;;;;;6.47;3.05;;;9.90;99.90;;;;;;4991806;28;20098;-47
2023/10/23 01:00:55;;;;;;;4.68;3.13;;;9.80;99.90;;;;;;4992088;28;20019;-51
2023/10/23 01:03:21;;;;;;;7.45;3.63;;;9.80;99.90;;;;;;4991966;28;20211;-49
2023/10/23 01:05:47;;;;;;;5.75;3.08;;;9.70;99.90;;;;;;4991968;28;20428;-54
2023/10/23 01:08:13;;;;;;;4.70;2.92;;;9.60;99.90;;;;;;4991734;28;20063;-49
2023/10/23 01:10:39;;;;;;;6.63;3.00;;;9.60;99.90;;;;;;4990730;28;20510;-49
2023/10/23 01:13:07;;;;;;;5.10;2.90;;;9.60;99.90;;;;;;4991790;28;20030;-49
2023/10/23 01:15:33;;;;;;;4.72;3.00;;;9.50;99.90;;;;;;4992084;28;20027;-46
2023/10/23 01:17:59;;;;;;;8.48;2.92;;;9.50;99.90;;;;;;4991880;28;20028;-47
2023/10/23 01:20:27;;;;;;;5.05;2.70;;;9.50;99.90;;;;;;4992019;28;20029;-54
2023/10/23 01:22:56;;;;;;;5.20;2.80;;;9.50;99.90;;;;;;4991768;28;20446;-45
2023/10/23 01:25:22;;;;;;;5.20;3.28;;;9.50;99.90;;;;;;4991742;28;20092;-47
2023/10/23 01:27:47;;;;;;;6.03;3.50;;;9.50;99.90;;;;;;4991758;28;20126;-50
2023/10/23 01:30:13;;;;;;;7.93;3.25;;;9.50;99.90;;;;;;4991720;28;20462;-45
2023/10/23 01:32:38;;;;;;;7.72;3.30;;;9.50;99.90;;;;;;4991984;28;20031;-49
2023/10/23 01:35:05;;;;;;;6.32;3.45;;;9.50;99.90;;;;;;4991729;28;20486;-48
2023/10/23 01:37:30;;;;;;;5.82;3.83;;;9.50;99.90;;;;;;4990477;28;20029;-47
2023/10/23 01:39:56;;;;;;;4.88;2.90;;;9.50;99.90;;;;;;4990243;28;20022;-50
2023/10/23 01:42:22;;;;;;;9.25;3.65;;;9.50;99.90;;;;;;4992401;28;20560;-52
2023/10/23 01:44:47;;;;;;;7.00;3.53;;;9.40;99.90;;;;;;4995315;28;20080;-48
2023/10/23 01:47:13;;;;;;;9.27;3.50;;;9.30;99.90;;;;;;4995287;28;20034;-46
2023/10/23 01:49:38;;;;;;;9.10;3.70;;;9.30;99.90;;;;;;4995313;28;20066;-53
2023/10/23 01:52:04;;;;;;;3.78;2.75;;;9.30;99.90;;;;;;4995054;28;20453;-51
2023/10/23 01:54:30;;;;;;;8.20;2.65;;;9.30;99.90;;;;;;4993808;28;20166;-50
2023/10/23 01:56:55;;;;;;;12.60;3.67;;;9.30;99.90;;;;;;4995086;28;20109;-51
2023/10/23 01:59:21;;;;;;;13.10;3.55;;;9.30;99.90;;;;;;4994752;28;20092;-50
2023/10/23 02:01:46;;;;;;;8.18;3.50;;;9.30;99.90;;;;;;4995070;28;20054;-53
2023/10/23 02:04:12;;;;;;;3.85;2.80;;;9.30;99.90;;;;;;4994968;28;20072;-51
2023/10/23 02:06:37;;;;;;;4.82;3.13;;;9.40;99.90;;;;;;4994876;28;20094;-49
2023/10/23 02:09:03;;;;;;;4.78;3.20;;;9.30;99.90;;;;;;4994837;28;20034;-53
2023/10/23 02:11:28;;;;;;;5.72;3.67;;;9.20;99.90;;;;;;4994905;28;20030;-47
2023/10/23 02:13:54;;;;;;;9.32;4.20;;;9.30;99.90;;;;;;4993409;28;20069;-51
2023/10/23 02:16:20;;;;;;;7.80;3.72;;;9.30;99.90;;;;;;4994780;28;20026;-49
2023/10/23 02:18:45;;;;;;;6.22;3.53;;;9.30;99.90;;;;;;4994588;28;20512;-49
2023/10/23 02:21:11;;;;;;;8.23;3.10;;;9.30;99.90;;;;;;4993368;28;20568;-50
2023/10/23 02:23:36;;;;;;;13.18;3.28;;;9.20;99.90;;;;;;4994511;28;20057;-48
2023/10/23 02:26:02;;;;;;;4.15;2.80;;;9.10;99.90;;;;;;4994635;28;20106;-50
2023/10/23 02:28:28;;;;;;;3.20;2.88;;;9.10;99.90;;;;;;4994446;28;20041;-48
2023/10/23 02:30:54;;;;;;;5.82;2.83;;;9.00;99.90;;;;;;4994540;28;20022;-55
2023/10/23 02:33:19;;;;;;;7.18;2.50;;;9.00;99.90;;;;;;4994474;28;20019;-50
2023/10/23 02:35:45;;;;;;;4.47;2.75;;;8.90;99.90;;;;;;4994557;28;20081;-50
2023/10/23 02:38:10;;;;;;;8.35;3.03;;;8.90;99.90;;;;;;4994316;28;20413;-50
2023/10/23 02:40:36;;;;;;;7.78;2.63;;;8.80;99.90;;;;;;4994423;28;20371;-55
2023/10/23 02:43:01;;;;;;;5.47;3.25;;;8.80;99.90;;;;;;4992888;28;20422;-47
2023/10/23 02:45:27;;;;;;;3.30;3.00;;;8.90;99.90;;;;;;4994207;28;20037;-47
2023/10/23 02:47:53;;;;;;;5.38;2.92;;;8.80;99.90;;;;;;4994527;28;20041;-48
2023/10/23 02:50:19;;;;;;;6.68;3.30;;;8.90;99.90;;;;;;4994166;28;20019;-50
2023/10/23 02:52:45;;;;;;;15.98;3.63;;;8.90;99.90;;;;;;4992654;28;20490;-47
2023/10/23 02:55:10;;;;;;;3.58;3.15;;;8.80;99.90;;;;;;4991833;28;20037;-54
2023/10/23 02:57:36;;;;;;;12.40;3.58;;;8.80;99.90;;;;;;4994041;28;20023;-50
2023/10/23 03:00:05;;;;;;;5.93;3.08;;;8.80;99.90;;;;;;4994094;28;20031;-49
2023/10/23 03:02:31;;;;;;;4.55;2.90;;;8.80;99.90;;;;;;4993856;28;20295;-50
2023/10/23 03:04:56;;;;;;;6.90;2.65;;;8.80;99.90;;;;;;4992586;28;20026;-51
2023/10/23 03:07:22;;;;;;;6.38;3.13;;;8.70;99.90;;;;;;4993659;28;20031;-48
2023/10/23 03:09:47;;;;;;;10.00;2.70;;;8.80;99.90;;;;;;4993935;28;20051;-50
2023/10/23 03:12:13;;;;;;;6.50;3.22;;;8.70;99.90;;;;;;4992425;28;20565;-48
2023/10/23 03:14:38;;;;;;;8.70;3.50;;;8.70;99.90;;;;;;4993631;28;20040;-51
2023/10/23 03:17:03;;;;;;;9.15;3.30;;;8.70;99.90;;;;;;4993488;28;20405;-47
2023/10/23 03:19:29;;;;;;;8.13;3.35;;;8.60;99.90;;;;;;4993768;28;20033;-47
2023/10/23 03:21:55;;;;;;;4.75;2.40;;;8.60;99.90;;;;;;4993574;28;20100;-48
2023/10/23 03:24:21;;;;;;;7.30;2.75;;;8.50;99.90;;;;;;4993509;28;20027;-51
2023/10/23 03:26:47;;;;;;;3.70;2.70;;;8.50;99.90;;;;;;4992164;28;20029;-48
2023/10/23 03:29:12;;;;;;;7.63;2.90;;;8.50;99.90;;;;;;4992049;28;20398;-48
2023/10/23 03:31:38;;;;;;;7.75;2.83;;;8.60;99.90;;;;;;4993273;28;20065;-54
2023/10/23 03:34:04;;;;;;;5.03;3.03;;;8.60;99.90;;;;;;4993658;28;20113;-57
2023/10/23 03:36:29;;;;;;;6.43;2.67;;;8.60;99.90;;;;;;4994027;28;20027;-50
2023/10/23 03:38:55;;;;;;;10.07;3.00;;;8.70;99.90;;;;;;4993373;28;20030;-50
2023/10/23 03:41:20;;;;;;;4.18;2.78;;;8.60;99.90;;;;;;4993223;28;20022;-51
2023/10/23 03:43:46;;;;;;;8.80;2.95;;;8.60;99.90;;;;;;4992802;28;20040;-49
2023/10/23 03:46:11;;;;;;;7.15;2.58;;;8.50;99.90;;;;;;4993269;28;20022;-50
2023/10/23 03:48:37;;;;;;;8.35;2.50;;;8.40;99.90;;;;;;4991950;28;20023;-48
2023/10/23 03:51:03;;;;;;;7.55;3.28;;;8.30;99.90;;;;;;4992815;28;20026;-50
2023/10/23 03:53:29;;;;;;;9.52;3.10;;;8.30;99.90;;;;;;4993520;28;20498;-49
2023/10/23 03:55:55;;;;;;;12.38;4.65;;;8.20;99.90;;;;;;4992926;28;20026;-53
2023/10/23 03:58:21;;;;;;;11.02;3.95;;;8.10;99.90;;;;;;4992824;28;20137;-51
2023/10/23 04:00:50;;;;;;;6.93;3.92;;;8.10;99.90;;;;;;4992878;28;20049;-50
2023/10/23 04:03:16;;;;;;;8.00;2.95;;;8.10;99.90;;;;;;4992809;28;20054;-51
2023/10/23 04:05:41;;;;;;;6.38;2.90;;;8.10;99.90;;;;;;4992601;28;20073;-47
2023/10/23 04:08:07;;;;;;;6.88;2.85;;;8.00;99.90;;;;;;4992494;28;20098;-51
2023/10/23 04:10:32;;;;;;;6.32;2.90;;;8.00;99.90;;;;;;4992772;28;20018;-49
2023/10/23 04:12:58;;;;;;;10.57;3.47;;;8.10;99.90;;;;;;4992485;28;20038;-50
2023/10/23 04:15:24;;;;;;;15.15;5.07;;;8.10;99.90;;;;;;4992583;28;20061;-49
2023/10/23 04:17:50;;;;;;;5.72;2.83;;;8.10;99.90;;;;;;4992428;28;20026;-51
2023/10/23 04:20:16;;;;;;;7.43;3.25;;;8.10;99.90;;;;;;4992479;28;20072;-51
2023/10/23 04:22:42;;;;;;;5.43;2.88;;;8.10;99.90;;;;;;4992457;28;20106;-49
2023/10/23 04:25:08;;;;;;;12.90;3.17;;;8.10;99.90;;;;;;4992480;28;20494;-50
2023/10/23 04:27:34;;;;;;;9.25;3.05;;;8.10;99.90;;;;;;4992234;28;20026;-52
2023/10/23 04:29:59;;;;;;;9.88;3.33;;;8.10;99.90;;;;;;4991191;28;20029;-47
2023/10/23 04:32:26;;;;;;;15.07;3.00;;;8.10;99.90;;;;;;4992302;28;20026;-49
2023/10/23 04:34:51;;;;;;;7.68;3.38;;;8.00;99.90;;;;;;4992118;28;20120;-53
2023/10/23 04:37:17;;;;;;;4.70;2.78;;;8.00;99.90;;;;;;4990900;28;20062;-48
2023/10/23 04:39:42;;;;;;;16.77;3.47;;;8.00;99.90;;;;;;4992337;28;20492;-50
2023/10/23 04:42:08;;;;;;;8.25;3.17;;;7.90;99.90;;;;;;4991968;28;20031;-51
2023/10/23 04:44:34;;;;;;;8.27;2.95;;;7.90;99.90;;;;;;4992310;28;20069;-52
2023/10/23 04:46:59;;;;;;;10.18;3.53;;;7.90;99.90;;;;;;4992314;28;20026;-50
2023/10/23 04:49:25;;;;;;;7.05;3.08;;;7.90;99.90;;;;;;4992058;28;20490;-53
2023/10/23 04:51:51;;;;;;;8.68;3.95;;;8.00;99.90;;;;;;4992113;28;20046;-51
2023/10/23 04:54:16;;;;;;;5.07;3.05;;;8.10;99.90;;;;;;4992115;28;20065;-44
2023/10/23 04:56:42;;;;;;;5.70;2.58;;;8.20;99.90;;;;;;4992196;28;20106;-49
2023/10/23 04:59:07;;;;;;;2.92;2.60;;;8.30;99.90;;;;;;4991769;28;20026;-51
2023/10/23 05:01:33;;;;;;;6.07;3.10;;;8.30;99.90;;;;;;4992038;28;20054;-48
2023/10/23 05:03:59;;;;;;;4.78;2.78;;;8.20;99.90;;;;;;4991893;28;20125;-50
2023/10/23 05:06:28;;;;;;;5.63;3.00;;;8.20;99.90;;;;;;4991989;28;20069;-51
2023/10/23 05:08:54;;;;;;;6.22;3.28;;;8.20;99.90;;;;;;4991432;28;20067;-50
2023/10/23 05:11:20;;;;;;;10.75;3.35;;;8.20;99.90;;;;;;4992013;28;20022;-52
2023/10/23 05:13:49;;;;;;;4.45;2.88;;;8.10;99.90;;;;;;4991851;28;20026;-53
2023/10/23 05:16:14;;;;;;;6.47;3.20;;;8.10;99.90;;;;;;4992060;28;20549;-52
2023/10/23 05:18:40;;;;;;;10.30;3.40;;;8.10;99.90;;;;;;4995020;28;20058;-49
2023/10/23 05:21:10;;;;;;;10.95;4.05;;;8.20;99.90;;;;;;4995947;28;20062;-54
2023/10/23 05:23:36;;;;;;;12.60;4.18;;;8.20;99.90;;;;;;4996049;28;20113;-53
2023/10/23 05:26:02;;;;;;;12.65;5.13;;;8.20;99.90;;;;;;4995849;28;20497;-52
2023/10/23 05:28:28;;;;;;;13.13;4.43;;;8.20;99.90;;;;;;4995805;28;20057;-48
2023/10/23 05:30:53;;;;;;;15.27;6.00;;;8.20;99.90;;;;;;4995841;28;20023;-47
2023/10/23 05:33:19;;;;;;;23.67;7.93;;;8.20;99.90;;;;;;4994593;28;20029;-49
2023/10/23 05:35:45;;;;;;;20.52;7.57;;;8.20;99.90;;;;;;4995726;28;20022;-47
2023/10/23 05:38:11;;;;;;;16.10;6.82;;;8.30;99.90;;;;;;4995506;28;20359;-49
2023/10/23 05:40:36;;;;;;;25.15;8.02;;;8.40;99.90;;;;;;4995896;28;20026;-48
2023/10/23 05:43:02;;;;;;;34.17;8.85;;;8.40;99.90;;;;;;4995271;28;20390;-48
2023/10/23 05:45:27;;;;;;;33.08;9.45;;;8.40;99.90;;;;;;4995365;28;20398;-47
2023/10/23 05:47:53;;;;;;;26.67;10.02;;;8.40;99.90;;;;;;4995032;28;20080;-48
2023/10/23 05:50:18;;;;;;;30.20;9.80;;;8.50;99.90;;;;;;4995546;28;20026;-48
2023/10/23 05:52:44;;;;;;;34.92;9.88;;;8.50;99.90;;;;;;4995264;28;20038;-48
2023/10/23 05:55:09;;;;;;;28.35;9.10;;;8.60;99.90;;;;;;4993972;28;20037;-47
2023/10/23 05:57:35;;;;;;;28.52;8.48;;;8.70;99.90;;;;;;4995118;28;20026;-50
2023/10/23 06:00:03;;;;;;;25.48;9.82;;;8.70;99.90;;;;;;4995319;28;20398;-49
2023/10/23 06:02:32;;;;;;;26.95;10.77;;;8.60;99.90;;;;;;4995133;28;20033;-47
2023/10/23 06:04:57;;;;;;;29.75;10.43;;;8.70;99.90;;;;;;4995181;28;20026;-50
2023/10/23 06:07:23;;;;;;;29.27;10.55;;;8.70;99.90;;;;;;4995058;28;20037;-47
2023/10/23 06:09:49;;;;;;;25.88;9.45;;;8.70;99.90;;;;;;4995079;28;20026;-47
2023/10/23 06:12:14;;;;;;;29.85;9.38;;;8.70;99.90;;;;;;4994898;28;20018;-48
2023/10/23 06:14:40;;;;;;;31.25;10.38;;;8.80;99.90;;;;;;4994916;28;20490;-47
2023/10/23 06:17:06;;;;;;;12.55;8.13;;;8.70;99.90;;;;;;4994892;28;20478;-52
2023/10/23 06:19:32;;;;;;;13.88;7.38;;;8.80;99.90;;;;;;4994953;28;20054;-48
2023/10/23 06:21:57;;;;;;;16.08;8.27;;;8.70;99.90;;;;;;4995158;28;20482;-51
2023/10/23 06:24:23;;;;;;;11.50;7.07;;;8.70;99.90;;;;;;4994949;28;20037;-51
2023/10/23 06:26:48;;;;;;;11.70;6.70;;;8.60;99.90;;;;;;4994863;28;20026;-48
2023/10/23 06:29:14;;;;;;;20.13;6.95;;;8.50;99.90;;;;;;4993258;28;20041;-48
2023/10/23 06:31:39;;;;;;;10.25;6.22;;;8.50;99.90;;;;;;4994577;28;20215;-47
2023/10/23 06:34:05;;;;;;;10.95;6.57;;;8.60;99.90;;;;;;4994370;28;20030;-45
2023/10/23 06:36:31;;;;;;;12.05;6.95;;;8.60;99.90;;;;;;4993257;28;20029;-52
2023/10/23 06:38:57;;;;;;;27.65;7.10;;;8.50;99.90;;;;;;4994419;28;20033;-48
2023/10/23 06:41:22;;;;;;;10.18;6.55;;;8.50;99.90;;;;;;4994424;28;20033;-47
2023/10/23 06:43:48;;;;;;;8.70;6.72;;;8.50;99.90;;;;;;4994115;28;20057;-47
2023/10/23 06:46:14;;;;;;;10.82;6.65;;;8.40;99.90;;;;;;4994350;28;20403;-47
2023/10/23 06:48:44;;;;;;;7.57;5.93;;;8.40;99.90;;;;;;4994478;28;20450;-48
2023/10/23 06:51:10;;;;;;;14.57;5.55;;;8.40;99.90;;;;;;4994156;28;20486;-51
2023/10/23 06:53:36;;;;;;;7.10;5.75;;;8.40;99.90;;;;;;4994624;28;20030;-49
2023/10/23 06:56:02;;;;;;;9.63;5.68;;;8.40;99.90;;;;;;4994126;28;20026;-50
2023/10/23 06:58:28;;;;;;;14.38;6.20;;;8.40;99.90;;;;;;4994046;28;20474;-47
2023/10/23 07:00:53;;;;;;;14.00;6.25;;;8.40;99.90;;;;;;4994443;28;20022;-48
2023/10/23 07:03:19;;;;;;;8.75;6.38;;;8.40;99.90;;;;;;4994035;28;20022;-49
2023/10/23 07:05:45;;;;;;;8.40;5.90;;;8.50;99.90;;;;;;4994159;28;20509;-51
2023/10/23 07:08:10;;;;;;;8.95;6.20;;;8.60;99.90;;;;;;4993942;28;20022;-51
2023/10/23 07:10:36;;;;;;;7.30;5.43;;;8.70;99.90;;;;;;4994112;28;20560;-51
2023/10/23 07:13:02;;;;;;;8.32;5.65;;;8.80;99.90;;;;;;4993772;28;20030;-52
2023/10/23 07:15:31;;;;;;;9.93;7.10;;;8.80;99.90;;;;;;4993810;28;20406;-51
2023/10/23 07:17:57;;;;;;;8.68;6.30;;;9.00;99.90;;;;;;4992470;28;20030;-48
2023/10/23 07:20:22;;;;;;;12.63;7.85;;;9.10;99.90;;;;;;4994047;28;20026;-48
2023/10/23 07:22:48;;;;;;;16.23;8.45;;;9.20;99.90;;;;;;4993809;28;20102;-52
2023/10/23 07:25:14;;;;;;;17.15;8.93;;;9.20;99.90;;;;;;4993655;28;20030;-47
2023/10/23 07:27:39;;;;;;;11.85;7.90;;;9.10;99.90;;;;;;4993391;28;20049;-52
2023/10/23 07:30:06;;;;;;;13.65;7.47;;;9.10;99.90;;;;;;4993665;28;20204;-49
2023/10/23 07:32:34;;;;;;;11.60;6.28;;;9.00;99.90;;;;;;4993486;28;20034;-50
2023/10/23 07:35:00;;;;;;;12.38;6.43;;;9.10;99.90;;;;;;4993421;28;20028;-47
2023/10/23 07:37:27;;;;;;;17.25;7.30;;;9.00;99.90;;;;;;4993881;28;20109;-46
2023/10/23 07:39:52;;;;;;;16.00;7.97;;;9.00;99.90;;;;;;4993427;28;20034;-46
2023/10/23 07:42:18;;;;;;;11.40;6.97;;;9.00;99.90;;;;;;4993128;28;20339;-47
2023/10/23 07:44:44;;;;;;;14.60;7.88;;;9.00;99.90;;;;;;4993220;28;20109;-47
2023/10/23 07:47:09;;;;;;;10.55;6.57;;;9.10;99.90;;;;;;4993161;28;20030;-47
2023/10/23 07:49:35;;;;;;;13.48;7.30;;;9.20;99.90;;;;;;4993166;28;20101;-47
2023/10/23 07:52:00;;;;;;;12.63;5.93;;;9.40;99.90;;;;;;4991951;28;20042;-49
2023/10/23 07:54:26;;;;;;;13.20;6.70;;;9.50;99.90;;;;;;4993019;28;20393;-52
2023/10/23 07:56:55;;;;;;;10.55;6.65;;;9.50;99.90;;;;;;4990705;28;20062;-53
2023/10/23 07:59:21;;;;;;;16.58;7.22;;;9.50;99.90;;;;;;4973464;28;20023;-47
2023/10/23 08:01:47;;;;;;;8.45;5.88;;;9.50;99.90;;;;;;4973673;28;20034;-50
2023/10/23 08:04:13;;;;;;;12.85;6.85;;;9.60;99.90;;;;;;4973330;28;20394;-50
2023/10/23 08:06:38;;;;;;;11.73;6.70;;;9.50;99.90;;;;;;4973428;28;20407;-50
2023/10/23 08:09:06;;;;;;;13.75;6.13;;;9.70;99.90;;;;;;4971758;28;20030;-53
2023/10/23 08:11:31;;;;;;;14.07;6.38;;;9.80;99.90;;;;;;4988119;28;20030;-50
2023/10/23 08:13:58;;;;;;;9.70;5.88;;;9.70;99.90;;;;;;4984127;28;20027;-49
2023/10/23 08:16:23;;;;;;;11.70;5.57;;;9.80;99.90;;;;;;4975627;28;20518;-51
2023/10/23 08:18:49;;;;;;;17.73;6.13;;;9.90;99.90;;;;;;4971963;28;20067;-50
2023/10/23 08:21:15;;;;;;;7.43;5.13;;;10.10;99.90;;;;;;4972051;28;20019;-46
2023/10/23 08:23:42;;;;;;;10.32;5.78;;;10.10;99.90;;;;;;4972810;28;20463;-51
2023/10/23 08:26:07;;;;;;;10.43;4.60;;;10.10;99.90;;;;;;4973306;28;20038;-49
2023/10/23 08:28:33;;;;;;;7.55;4.57;;;10.00;99.90;;;;;;4972610;28;20394;-48
2023/10/23 08:30:58;;;;;;;9.85;4.38;;;10.10;99.90;;;;;;4973176;28;20023;-52
2023/10/23 08:33:24;;;;;;;12.38;4.80;;;10.20;99.90;;;;;;4973152;28;20105;-49
2023/10/23 08:35:49;;;;;;;8.73;3.33;;;10.30;99.90;;;;;;4973059;28;20041;-48
2023/10/23 08:38:15;;;;;;;11.50;3.67;;;10.40;99.90;;;;;;4972760;28;20081;-51
2023/10/23 08:40:41;;;;;;;8.75;3.80;;;10.50;99.90;;;;;;4973229;28;20031;-50
2023/10/23 08:43:08;;;;;;;11.13;4.28;;;10.50;99.90;;;;;;4972800;28;20503;-52
2023/10/23 08:45:34;;;;;;;8.63;4.35;;;10.60;99.90;;;;;;4972805;28;20050;-51
2023/10/23 08:47:59;;;;;;;7.95;3.67;;;10.70;99.90;;;;;;4972650;28;20467;-55
2023/10/23 08:50:25;;;;;;;11.68;4.28;;;10.80;99.90;;;;;;4971023;28;20082;-48
2023/10/23 08:53:00;;;;;;;5.85;3.70;;;11.00;99.90;;;;;;4970432;28;20120;-49
2023/10/23 08:55:28;;;;;;;12.73;5.05;;;11.10;99.90;;;;;;4972751;28;20023;-55
2023/10/23 08:57:56;;;;;;;8.65;3.78;;;11.30;99.90;;;;;;4971563;28;20079;-51
2023/10/23 09:00:22;;;;;;;11.45;3.60;;;12.00;99.90;;;;;;4971433;28;20027;-45
2023/10/23 09:02:49;;;;;;;11.07;2.92;;;13.10;99.90;;;;;;4972555;28;20023;-54
2023/10/23 09:05:14;;;;;;;11.30;2.70;;;13.90;99.90;;;;;;4971964;28;20061;-47
2023/10/23 09:07:40;;;;;;;6.30;2.72;;;14.30;99.90;;;;;;4972295;28;20070;-52
2023/10/23 09:10:06;;;;;;;9.00;3.08;;;14.00;99.90;;;;;;4972597;28;20031;-49
2023/10/23 09:12:34;;;;;;;6.90;2.63;;;13.60;99.90;;;;;;4972729;28;20026;-50
2023/10/23 09:15:21;;;;;;;14.00;4.45;;;13.10;99.90;;;;;;4973030;28;20035;-49
2023/10/23 09:17:49;;;;;;;7.30;3.10;;;12.60;99.90;;;;;;4972834;28;20031;-49
2023/10/23 09:20:23;;;;;;;6.30;2.55;;;12.30;99.90;;;;;;4972818;28;20034;-50
2023/10/23 09:22:50;;;;;;;14.05;3.05;;;12.10;99.90;;;;;;4972614;28;20046;-48
2023/10/23 09:25:20;;;;;;;13.55;4.18;;;12.00;99.90;;;;;;4972583;28;20401;-50
2023/10/23 09:27:45;;;;;;;19.15;3.53;;;11.90;99.90;;;;;;4972396;28;20030;-51
2023/10/23 09:30:13;;;;;;;6.03;3.03;;;11.90;99.90;;;;;;4972692;28;20512;-55
2023/10/23 09:32:39;;;;;;;7.93;3.03;;;11.80;99.90;;;;;;4972061;28;20027;-49
2023/10/23 09:35:10;;;;;;;9.95;3.10;;;11.90;99.90;;;;;;4971980;28;20039;-51
2023/10/23 09:37:39;;;;;;;27.30;16.67;;;11.90;99.90;;;;;;4972379;28;20098;-54
2023/10/23 09:40:09;;;;;;;45.13;24.73;;;11.90;99.90;;;;;;4972084;28;20019;-48
2023/10/23 09:42:35;;;;;;;81.60;39.15;;;11.80;99.90;;;;;;4970546;28;20033;-48
2023/10/23 09:45:02;;;;;;;11.90;4.18;;;11.80;99.90;;;;;;4971638;28;20058;-48
2023/10/23 09:47:31;;;;;;;9.80;4.40;;;12.10;99.90;;;;;;4981365;28;20098;-53
2023/10/23 09:49:58;;;;;;;11.82;3.78;;;11.80;99.90;;;;;;4972417;28;20482;-47
2023/10/23 09:52:26;;;;;;;12.32;3.65;;;11.90;99.90;;;;;;5002322;23;20470;-49
2023/10/23 09:55:00;;;;;;;12.75;3.45;;;12.00;99.90;;;;;;5009969;28;20121;-50
2023/10/23 09:57:35;;;;;;;10.97;2.83;;;12.00;99.90;;;;;;5011447;28;20033;-49
2023/10/23 10:00:12;;;;;;;6.07;2.85;;;12.10;99.90;;;;;;5010264;28;20108;-49
2023/10/23 10:02:39;;;;;;;6.03;2.95;;;12.20;99.90;;;;;;5011388;28;20501;-51
2023/10/23 10:05:12;;;;;;;12.27;3.38;;;12.30;99.90;;;;;;5013519;28;20107;-56
2023/10/23 10:07:49;;;;;;;14.00;4.72;;;13.60;99.90;;;;;;4995168;28;20022;-51
2023/10/23 10:10:16;;;;;;;10.60;3.53;;;12.80;99.90;;;;;;4995318;28;20033;-51
2023/10/23 10:12:42;;;;;;;5.68;2.72;;;12.60;99.90;;;;;;4994861;28;20073;-53
2023/10/23 10:15:09;;;;;;;7.95;3.22;;;12.70;99.90;;;;;;4995099;28;20030;-52
2023/10/23 10:17:37;;;;;;;5.45;2.65;;;12.80;99.90;;;;;;4994700;28;20034;-52
2023/10/23 10:20:03;;;;;;;10.43;3.08;;;12.90;99.90;;;;;;4995170;28;20057;-53
2023/10/23 10:22:30;;;;;;;12.57;2.60;;;12.90;99.90;;;;;;4994954;28;20018;-55
2023/10/23 10:24:57;;;;;;;9.07;3.33;;;12.90;99.90;;;;;;4995182;28;20092;-53
2023/10/23 10:27:23;;;;;;;16.05;2.42;;;12.90;99.90;;;;;;4994939;28;20058;-53
2023/10/23 10:29:49;;;;;;;10.25;2.67;;;13.10;99.90;;;;;;4994916;28;20121;-53
2023/10/23 10:32:14;;;;;;;9.13;2.55;;;13.10;99.90;;;;;;4995179;28;20097;-56
2023/10/23 10:34:46;;;;;;;9.07;2.20;;;13.20;99.90;;;;;;4994938;28;20033;-56
2023/10/23 10:37:12;;;;;;;8.68;2.65;;;13.20;99.90;;;;;;4993564;28;20027;-56
2023/10/23 10:39:50;;;;;;;3.17;2.10;;;13.20;99.90;;;;;;4993929;28;20457;-55
2023/10/23 10:42:42;;;;;;;6.50;2.30;;;13.30;99.90;;;;;;4997563;28;20022;-54
2023/10/23 10:45:14;;;;;;;4.60;2.28;;;13.40;99.90;;;;;;5011498;28;20042;-50
2023/10/23 10:47:43;;;;;;;8.45;2.50;;;13.40;99.90;;;;;;5014002;28;20434;-52
2023/10/23 10:50:12;;;;;;;6.72;1.98;;;13.40;99.90;;;;;;5013641;28;20025;-58
2023/10/23 10:52:42;;;;;;;9.68;2.30;;;13.50;99.90;;;;;;5013849;28;20657;-54
2023/10/23 10:55:11;;;;;;;7.50;2.33;;;13.60;99.90;;;;;;5019859;28;20405;-59
2023/10/23 10:57:40;;;;;;;7.20;2.42;;;13.70;99.90;;;;;;5014135;28;20022;-54
2023/10/23 11:00:07;;;;;;;8.40;2.28;;;13.80;99.90;;;;;;5012492;28;20058;-55
2023/10/23 11:02:32;;;;;;;7.65;1.98;;;13.90;99.90;;;;;;5013541;28;20057;-58
2023/10/23 11:04:58;;;;;;;7.28;1.52;;;13.90;99.90;;;;;;5013301;28;20469;-55
2023/10/23 11:07:25;;;;;;;9.73;2.22;;;13.80;99.90;;;;;;5015230;28;20052;-54
2023/10/23 11:09:51;;;;;;;3.53;1.83;;;13.90;99.90;;;;;;5015820;28;20497;-52
2023/10/23 11:12:20;;;;;;;9.38;1.85;;;14.00;99.90;;;;;;5017346;28;20034;-53
2023/10/23 11:14:47;;;;;;;4.15;1.50;;;14.00;99.90;;;;;;5013765;28;20029;-54
2023/10/23 11:17:13;;;;;;;74.28;37.80;;;14.10;99.90;;;;;;5033345;28;20065;-51
2023/10/23 11:19:41;;;;;;;10.20;3.78;;;14.10;99.90;;;;;;5023260;28;20544;-51
2023/10/23 11:22:12;;;;;;;4.80;1.90;;;14.20;99.90;;;;;;5019367;28;20103;-56
2023/10/23 11:24:38;;;;;;;5.90;1.90;;;14.20;99.90;;;;;;5032539;28;20026;-55
2023/10/23 11:27:07;;;;;;;5.13;1.92;;;14.30;99.90;;;;;;5032006;28;20041;-51
2023/10/23 11:29:46;;;;;;;4.00;1.60;;;14.20;99.90;;;;;;5016877;28;20117;-53
2023/10/23 11:32:13;;;;;;;10.05;2.17;;;14.20;99.90;;;;;;5013327;28;20556;-51
2023/10/23 11:34:39;;;;;;;7.68;2.42;;;14.20;99.90;;;;;;5031627;28;20087;-51
2023/10/23 11:37:07;;;;;;;9.40;1.80;;;14.20;99.90;;;;;;5030748;28;20021;-53
2023/10/23 11:39:35;;;;;;;6.63;1.92;;;14.20;99.90;;;;;;5012818;28;20021;-53
2023/10/23 11:42:02;;;;;;;3.55;2.38;;;14.20;99.90;;;;;;5013488;28;20505;-51
2023/10/23 11:44:30;;;;;;;8.70;2.80;;;14.20;99.90;;;;;;5012434;28;20033;-53
2023/10/23 11:47:00;;;;;;;8.65;2.33;;;14.30;99.90;;;;;;5011821;28;20054;-55
2023/10/23 11:49:25;;;;;;;8.32;1.85;;;14.30;99.90;;;;;;5012863;28;20038;-56
2023/10/23 11:51:56;;;;;;;7.18;1.83;;;14.30;99.90;;;;;;5013209;28;20038;-51
2023/10/23 11:54:24;;;;;;;5.80;1.70;;;14.30;99.90;;;;;;5013043;28;20563;-54
2023/10/23 11:56:49;;;;;;;5.13;2.50;;;14.40;99.90;;;;;;5012646;28;20033;-54
2023/10/23 11:59:17;;;;;;;5.50;2.08;;;14.50;99.90;;;;;;5010469;28;20066;-56
2023/10/23 12:01:43;;;;;;;4.60;2.05;;;14.50;99.90;;;;;;5010764;28;20033;-55
2023/10/23 12:04:09;;;;;;;4.57;1.80;;;14.50;99.90;;;;;;5012626;28;20036;-54
2023/10/23 12:06:36;;;;;;;3.67;1.70;;;14.60;99.90;;;;;;5012076;28;20088;-54
2023/10/23 12:09:02;;;;;;;3.90;1.75;;;14.50;99.90;;;;;;5010381;28;20477;-54
2023/10/23 12:11:28;;;;;;;8.05;2.78;;;14.70;99.90;;;;;;5012663;28;20029;-53
2023/10/23 12:13:54;;;;;;;4.53;1.90;;;14.60;99.90;;;;;;5012959;28;20402;-51
2023/10/23 12:16:20;;;;;;;8.98;1.73;;;14.70;99.90;;;;;;5012783;28;20025;-54
2023/10/23 12:18:45;;;;;;;7.38;1.48;;;14.70;99.90;;;;;;5013512;28;20383;-49
2023/10/23 12:21:12;;;;;;;8.50;2.13;;;14.70;99.90;;;;;;5011532;28;20101;-51
2023/10/23 12:23:37;;;;;;;6.53;2.08;;;14.80;99.90;;;;;;5012479;28;20458;-51
2023/10/23 12:26:03;;;;;;;7.97;2.05;;;14.80;99.90;;;;;;5012335;28;20065;-54
2023/10/23 12:28:28;;;;;;;33.25;16.50;;;14.80;99.90;;;;;;5012676;28;20116;-51
2023/10/23 12:30:54;;;;;;;88.32;48.10;;;14.80;99.90;;;;;;5011747;28;20069;-54
2023/10/23 12:33:20;;;;;;;5.97;3.25;;;14.80;99.90;;;;;;5013101;28;20022;-56
2023/10/23 12:35:46;;;;;;;11.18;2.08;;;14.80;99.90;;;;;;5011925;28;20545;-51
2023/10/23 12:38:12;;;;;;;3.92;2.88;;;14.90;99.90;;;;;;5011177;28;20116;-57
2023/10/23 12:40:39;;;;;;;3.38;1.75;;;14.80;99.90;;;;;;5011834;28;20101;-52
2023/10/23 12:43:04;;;;;;;5.03;2.22;;;14.80;99.90;;;;;;5011249;28;20435;-51
2023/10/23 12:45:30;;;;;;;9.02;2.00;;;14.80;99.90;;;;;;5011510;28;20058;-50